createdAt,value
2023-03-27T00:00:56.156Z,0.00
2023-03-27T00:01:56.012Z,0.00
2023-03-27T00:02:56.000Z,0.00
2023-03-27T00:03:56.047Z,0.00
2023-03-27T00:04:55.965Z,0.00
2023-03-27T00:05:55.953Z,0.00
2023-03-27T00:06:55.913Z,0.00
2023-03-27T00:07:55.934Z,0.00
2023-03-27T00:08:55.978Z,0.00
2023-03-27T00:09:55.886Z,0.00
2023-03-27T00:10:56.055Z,0.00
2023-03-27T00:11:55.883Z,0.00
2023-03-27T00:12:55.853Z,0.00
2023-03-27T00:13:55.909Z,0.00
2023-03-27T00:14:55.854Z,0.00
2023-03-27T00:15:55.844Z,0.00
2023-03-27T00:16:55.856Z,0.00
2023-03-27T00:17:55.821Z,0.00
2023-03-27T00:18:55.818Z,0.00
2023-03-27T00:19:55.799Z,0.00
2023-03-27T00:20:55.987Z,0.00
2023-03-27T00:21:55.770Z,0.00
2023-03-27T00:22:55.760Z,0.00
2023-03-27T00:23:55.699Z,1.00
2023-03-27T00:24:55.744Z,0.00
2023-03-27T00:25:55.738Z,0.00
2023-03-27T00:26:55.766Z,0.00
2023-03-27T00:27:55.703Z,0.00
2023-03-27T00:28:55.691Z,0.00
2023-03-27T00:29:55.697Z,0.00
2023-03-27T00:30:56.054Z,0.00
2023-03-27T00:31:55.671Z,0.00
2023-03-27T00:32:55.716Z,0.00
2023-03-27T00:33:55.652Z,0.00
2023-03-27T00:34:55.634Z,0.00
2023-03-27T00:35:55.651Z,0.00
2023-03-27T00:36:55.644Z,0.00
2023-03-27T00:37:55.653Z,0.00
2023-03-27T00:38:55.646Z,0.00
2023-03-27T00:39:55.581Z,0.00
2023-03-27T00:40:55.680Z,1.00
2023-03-27T00:42:06.225Z,0.00
2023-03-27T00:42:55.664Z,0.00
2023-03-27T00:43:55.596Z,0.00
2023-03-27T00:44:55.543Z,0.00
2023-03-27T00:45:55.539Z,0.00
2023-03-27T00:46:55.551Z,0.00
2023-03-27T00:47:55.539Z,0.00
2023-03-27T00:48:55.514Z,0.00
2023-03-27T00:49:55.493Z,0.00
2023-03-27T00:50:55.615Z,0.00
2023-03-27T00:51:55.485Z,0.00
2023-03-27T00:52:55.442Z,0.00
2023-03-27T00:53:55.467Z,0.00
2023-03-27T00:54:55.451Z,0.00
2023-03-27T00:55:55.455Z,0.00
2023-03-27T00:56:55.464Z,0.00
2023-03-27T00:57:55.414Z,0.00
2023-03-27T00:58:55.409Z,0.00
2023-03-27T00:59:55.382Z,0.00
2023-03-27T01:00:55.706Z,0.00
2023-03-27T01:01:55.502Z,0.00
2023-03-27T01:02:55.450Z,0.00
2023-03-27T01:03:55.392Z,0.00
2023-03-27T01:04:55.362Z,0.00
2023-03-27T01:05:55.339Z,0.00
2023-03-27T01:06:55.348Z,0.00
2023-03-27T01:08:00.542Z,0.00
2023-03-27T01:08:55.353Z,0.00
2023-03-27T01:09:55.348Z,0.00
2023-03-27T01:10:55.529Z,0.00
2023-03-27T01:11:55.317Z,0.00
2023-03-27T01:12:55.301Z,0.00
2023-03-27T01:13:55.277Z,0.00
2023-03-27T01:14:55.254Z,0.00
2023-03-27T01:15:55.305Z,0.00
2023-03-27T01:16:55.248Z,0.00
2023-03-27T01:17:55.269Z,0.00
2023-03-27T01:18:55.187Z,0.00
2023-03-27T01:19:55.189Z,0.00
2023-03-27T01:20:55.305Z,0.00
2023-03-27T01:21:55.206Z,0.00
2023-03-27T01:22:55.211Z,0.00
2023-03-27T01:23:59.354Z,0.00
2023-03-27T01:24:55.127Z,0.00
2023-03-27T01:25:55.198Z,0.00
2023-03-27T01:26:55.113Z,0.00
2023-03-27T01:27:55.099Z,0.00
2023-03-27T01:28:55.104Z,0.00
2023-03-27T01:29:55.156Z,0.00
2023-03-27T01:30:55.402Z,0.00
2023-03-27T01:31:55.113Z,0.00
2023-03-27T01:32:55.133Z,0.00
2023-03-27T01:33:55.042Z,0.00
2023-03-27T01:35:01.634Z,0.00
2023-03-27T01:35:55.051Z,0.00
2023-03-27T01:36:54.987Z,0.00
2023-03-27T01:37:54.984Z,0.00
2023-03-27T01:38:55.018Z,0.00
2023-03-27T01:39:54.983Z,0.00
2023-03-27T01:40:55.129Z,0.00
2023-03-27T01:41:54.958Z,0.00
2023-03-27T01:42:54.927Z,0.00
2023-03-27T01:43:54.953Z,0.00
2023-03-27T01:44:54.922Z,0.00
2023-03-27T01:45:54.927Z,0.00
2023-03-27T01:46:54.953Z,0.00
2023-03-27T01:47:54.927Z,0.00
2023-03-27T01:48:54.896Z,0.00
2023-03-27T01:49:54.895Z,0.00
2023-03-27T01:50:55.267Z,0.00
2023-03-27T01:51:54.828Z,0.00
2023-03-27T01:52:54.848Z,0.00
2023-03-27T01:53:54.842Z,0.00
2023-03-27T01:54:54.814Z,0.00
2023-03-27T01:56:05.080Z,0.00
2023-03-27T01:56:54.799Z,0.00
2023-03-27T01:57:54.773Z,0.00
2023-03-27T01:58:54.724Z,1.00
2023-03-27T01:59:54.754Z,0.00
2023-03-27T02:00:54.817Z,0.00
2023-03-27T02:01:54.842Z,0.00
2023-03-27T02:02:54.756Z,0.00
2023-03-27T02:03:54.739Z,0.00
2023-03-27T02:04:54.868Z,0.00
2023-03-27T02:05:54.713Z,0.00
2023-03-27T02:06:54.690Z,0.00
2023-03-27T02:07:54.695Z,0.00
2023-03-27T02:08:54.674Z,0.00
2023-03-27T02:09:54.701Z,0.00
2023-03-27T02:10:54.914Z,0.00
2023-03-27T02:11:54.647Z,0.00
2023-03-27T02:12:54.684Z,0.00
2023-03-27T02:13:54.617Z,0.00
2023-03-27T02:14:54.612Z,0.00
2023-03-27T02:15:54.665Z,0.00
2023-03-27T02:16:54.610Z,0.00
2023-03-27T02:17:54.624Z,0.00
2023-03-27T02:18:54.589Z,0.00
2023-03-27T02:19:54.579Z,0.00
2023-03-27T02:20:54.780Z,0.00
2023-03-27T02:21:54.530Z,0.00
2023-03-27T02:22:54.613Z,0.00
2023-03-27T02:23:54.528Z,0.00
2023-03-27T02:24:54.514Z,0.00
2023-03-27T02:25:54.533Z,0.00
2023-03-27T02:26:54.507Z,0.00
2023-03-27T02:27:54.513Z,0.00
2023-03-27T02:28:54.503Z,0.00
2023-03-27T02:29:54.473Z,0.00
2023-03-27T02:31:06.023Z,0.00
2023-03-27T02:31:54.516Z,0.00
2023-03-27T02:32:54.464Z,0.00
2023-03-27T02:33:54.447Z,0.00
2023-03-27T02:34:54.418Z,0.00
2023-03-27T02:35:54.451Z,0.00
2023-03-27T02:36:54.401Z,0.00
2023-03-27T02:37:54.343Z,1.00
2023-03-27T02:38:54.411Z,0.00
2023-03-27T02:39:54.369Z,0.00
2023-03-27T02:40:54.448Z,0.00
2023-03-27T02:41:54.386Z,0.00
2023-03-27T02:42:54.336Z,0.00
2023-03-27T02:43:54.346Z,0.00
2023-03-27T02:44:54.327Z,0.00
2023-03-27T02:45:54.358Z,0.00
2023-03-27T02:46:54.338Z,0.00
2023-03-27T02:47:54.345Z,0.00
2023-03-27T02:48:54.294Z,0.00
2023-03-27T02:49:54.263Z,0.00
2023-03-27T02:50:54.434Z,0.00
2023-03-27T02:51:54.240Z,0.00
2023-03-27T02:52:54.248Z,0.00
2023-03-27T02:53:54.231Z,0.00
2023-03-27T02:54:54.237Z,0.00
2023-03-27T02:55:54.206Z,0.00
2023-03-27T02:56:54.246Z,0.00
2023-03-27T02:57:54.195Z,0.00
2023-03-27T02:58:54.181Z,0.00
2023-03-27T02:59:54.195Z,0.00
2023-03-27T03:00:54.294Z,0.00
2023-03-27T03:01:54.195Z,0.00
2023-03-27T03:02:54.232Z,0.00
2023-03-27T03:03:54.117Z,0.00
2023-03-27T03:04:54.156Z,0.00
2023-03-27T03:05:54.103Z,0.00
2023-03-27T03:06:54.095Z,0.00
2023-03-27T03:07:54.085Z,0.00
2023-03-27T03:08:54.075Z,0.00
2023-03-27T03:10:02.601Z,0.00
2023-03-27T03:10:54.159Z,0.00
2023-03-27T03:11:54.081Z,0.00
2023-03-27T03:12:54.378Z,0.00
2023-03-27T03:13:54.026Z,0.00
2023-03-27T03:14:54.036Z,0.00
2023-03-27T03:15:53.998Z,0.00
2023-03-27T03:16:54.059Z,0.00
2023-03-27T03:17:54.027Z,0.00
2023-03-27T03:18:53.929Z,1.00
2023-03-27T03:19:54.046Z,0.00
2023-03-27T03:20:54.061Z,0.00
2023-03-27T03:21:53.929Z,0.00
2023-03-27T03:22:53.930Z,0.00
2023-03-27T03:23:57.627Z,0.00
2023-03-27T03:24:53.991Z,0.00
2023-03-27T03:25:53.889Z,0.00
2023-03-27T03:26:53.915Z,0.00
2023-03-27T03:27:53.889Z,0.00
2023-03-27T03:29:00.196Z,0.00
2023-03-27T03:29:53.881Z,0.00
2023-03-27T03:30:54.143Z,0.00
2023-03-27T03:31:53.849Z,0.00
2023-03-27T03:32:53.870Z,0.00
2023-03-27T03:33:53.830Z,0.00
2023-03-27T03:34:53.814Z,0.00
2023-03-27T03:35:53.833Z,0.00
2023-03-27T03:36:53.817Z,0.00
2023-03-27T03:37:53.813Z,0.00
2023-03-27T03:38:53.769Z,0.00
2023-03-27T03:39:53.813Z,0.00
2023-03-27T03:40:53.889Z,0.00
2023-03-27T03:41:53.738Z,0.00
2023-03-27T03:42:53.736Z,0.00
2023-03-27T03:43:53.710Z,0.00
2023-03-27T03:44:53.726Z,0.00
2023-03-27T03:45:53.759Z,0.00
2023-03-27T03:46:53.691Z,0.00
2023-03-27T03:47:53.719Z,0.00
2023-03-27T03:48:53.674Z,0.00
2023-03-27T03:49:53.607Z,1.00
2023-03-27T03:50:53.723Z,0.00
2023-03-27T03:52:04.437Z,0.00
2023-03-27T03:52:53.638Z,0.00
2023-03-27T03:53:53.613Z,0.00
2023-03-27T03:54:53.658Z,0.00
2023-03-27T03:55:53.641Z,0.00
2023-03-27T03:56:53.665Z,0.00
2023-03-27T03:57:53.603Z,0.00
2023-03-27T03:58:53.565Z,0.00
2023-03-27T03:59:53.598Z,0.00
2023-03-27T04:00:53.613Z,0.00
2023-03-27T04:01:53.624Z,0.00
2023-03-27T04:02:53.655Z,0.00
2023-03-27T04:03:53.621Z,0.00
2023-03-27T04:04:53.508Z,0.00
2023-03-27T04:05:53.493Z,0.00
2023-03-27T04:06:53.522Z,0.00
2023-03-27T04:07:53.503Z,0.00
2023-03-27T04:08:53.491Z,0.00
2023-03-27T04:09:53.448Z,0.00
2023-03-27T04:10:53.445Z,0.00
2023-03-27T04:11:53.439Z,0.00
2023-03-27T04:12:53.423Z,0.00
2023-03-27T04:13:53.425Z,0.00
2023-03-27T04:14:53.395Z,0.00
2023-03-27T04:15:53.416Z,0.00
2023-03-27T04:16:53.453Z,0.00
2023-03-27T04:17:53.493Z,0.00
2023-03-27T04:18:53.496Z,0.00
2023-03-27T04:19:53.362Z,0.00
2023-03-27T04:20:53.408Z,0.00
2023-03-27T04:21:53.353Z,0.00
2023-03-27T04:22:54.380Z,0.00
2023-03-27T04:24:00.927Z,0.00
2023-03-27T04:24:53.321Z,0.00
2023-03-27T04:25:53.406Z,0.00
2023-03-27T04:26:53.310Z,0.00
2023-03-27T04:27:53.280Z,0.00
2023-03-27T04:28:53.265Z,0.00
2023-03-27T04:29:53.247Z,0.00
2023-03-27T04:30:53.263Z,0.00
2023-03-27T04:31:53.397Z,0.00
2023-03-27T04:32:53.269Z,0.00
2023-03-27T04:33:53.236Z,0.00
2023-03-27T04:34:53.221Z,0.00
2023-03-27T04:36:05.991Z,0.00
2023-03-27T04:36:53.201Z,0.00
2023-03-27T04:37:53.227Z,0.00
2023-03-27T04:38:53.214Z,0.00
2023-03-27T04:39:53.144Z,0.00
2023-03-27T04:40:53.148Z,0.00
2023-03-27T04:41:53.143Z,0.00
2023-03-27T04:42:53.234Z,0.00
2023-03-27T04:43:53.069Z,1.00
2023-03-27T04:44:53.056Z,1.00
2023-03-27T04:45:53.142Z,0.00
2023-03-27T04:46:53.128Z,0.00
2023-03-27T04:47:53.125Z,1.00
2023-03-27T04:48:53.112Z,0.00
2023-03-27T04:49:53.011Z,1.00
2023-03-27T04:50:53.015Z,1.00
2023-03-27T04:51:52.977Z,1.00
2023-03-27T04:52:52.976Z,2.00
2023-03-27T04:53:52.987Z,2.00
2023-03-27T04:54:52.966Z,1.00
2023-03-27T04:55:52.967Z,1.00
2023-03-27T04:56:53.001Z,2.00
2023-03-27T04:57:52.936Z,1.00
2023-03-27T04:58:53.318Z,3.00
2023-03-27T04:59:53.028Z,6.00
2023-03-27T05:00:52.947Z,5.00
2023-03-27T05:01:52.893Z,3.00
2023-03-27T05:02:53.058Z,3.00
2023-03-27T05:03:52.934Z,5.00
2023-03-27T05:04:52.855Z,6.00
2023-03-27T05:05:52.844Z,11.00
2023-03-27T05:06:52.844Z,11.00
2023-03-27T05:07:52.829Z,13.00
2023-03-27T05:08:52.873Z,13.00
2023-03-27T05:09:52.822Z,16.00
2023-03-27T05:10:52.801Z,20.00
2023-03-27T05:11:52.830Z,23.00
2023-03-27T05:12:52.814Z,29.00
2023-03-27T05:13:52.793Z,26.00
2023-03-27T05:14:52.758Z,30.00
2023-03-27T05:15:52.731Z,32.00
2023-03-27T05:16:52.785Z,31.00
2023-03-27T05:17:52.857Z,32.00
2023-03-27T05:18:52.719Z,38.00
2023-03-27T05:19:52.715Z,39.00
2023-03-27T05:20:52.706Z,42.00
2023-03-27T05:21:52.689Z,44.00
2023-03-27T05:22:52.684Z,50.00
2023-03-27T05:23:52.668Z,56.00
2023-03-27T05:24:52.668Z,64.00
2023-03-27T05:25:59.921Z,74.00
2023-03-27T05:26:52.667Z,81.00
2023-03-27T05:27:52.611Z,85.00
2023-03-27T05:28:52.669Z,90.00
2023-03-27T05:29:52.689Z,81.00
2023-03-27T05:30:52.655Z,85.00
2023-03-27T05:31:52.587Z,108.00
2023-03-27T05:32:52.730Z,127.00
2023-03-27T05:33:52.871Z,151.00
2023-03-27T05:35:00.158Z,166.00
2023-03-27T05:35:52.833Z,171.00
2023-03-27T05:36:52.556Z,178.00
2023-03-27T05:37:52.571Z,184.00
2023-03-27T05:38:52.541Z,191.00
2023-03-27T05:39:52.496Z,194.00
2023-03-27T05:40:52.546Z,196.00
2023-03-27T05:41:52.560Z,198.00
2023-03-27T05:42:52.483Z,206.00
2023-03-27T05:43:52.552Z,210.00
2023-03-27T05:44:52.496Z,217.00
2023-03-27T05:45:52.528Z,220.00
2023-03-27T05:46:52.454Z,226.00
2023-03-27T05:47:52.443Z,231.00
2023-03-27T05:48:52.408Z,240.00
2023-03-27T05:49:52.403Z,257.00
2023-03-27T05:50:52.476Z,265.00
2023-03-27T05:51:52.389Z,275.00
2023-03-27T05:52:52.369Z,287.00
2023-03-27T05:53:52.370Z,291.00
2023-03-27T05:54:52.346Z,304.00
2023-03-27T05:56:03.098Z,319.00
2023-03-27T05:56:52.339Z,343.00
2023-03-27T05:57:52.321Z,363.00
2023-03-27T05:58:52.303Z,380.00
2023-03-27T05:59:52.326Z,391.00
2023-03-27T06:00:52.345Z,405.00
2023-03-27T06:01:52.281Z,387.00
2023-03-27T06:02:52.374Z,407.00
2023-03-27T06:03:52.354Z,518.00
2023-03-27T06:04:52.276Z,559.00
2023-03-27T06:05:52.271Z,492.00
2023-03-27T06:06:52.237Z,455.00
2023-03-27T06:07:52.235Z,469.00
2023-03-27T06:08:52.255Z,515.00
2023-03-27T06:09:52.208Z,521.00
2023-03-27T06:10:53.160Z,525.00
2023-03-27T06:11:52.177Z,538.00
2023-03-27T06:12:52.176Z,552.00
2023-03-27T06:13:52.195Z,571.00
2023-03-27T06:14:53.049Z,561.00
2023-03-27T06:15:52.231Z,569.00
2023-03-27T06:16:52.146Z,581.00
2023-03-27T06:17:52.162Z,585.00
2023-03-27T06:18:52.124Z,589.00
2023-03-27T06:19:52.104Z,600.00
2023-03-27T06:20:52.084Z,614.00
2023-03-27T06:21:52.086Z,620.00
2023-03-27T06:22:52.103Z,624.00
2023-03-27T06:23:52.063Z,630.00
2023-03-27T06:24:52.051Z,641.00
2023-03-27T06:25:52.052Z,653.00
2023-03-27T06:26:52.037Z,662.00
2023-03-27T06:27:52.022Z,668.00
2023-03-27T06:28:52.002Z,680.00
2023-03-27T06:29:52.009Z,692.00
2023-03-27T06:30:52.104Z,693.00
2023-03-27T06:31:52.036Z,698.00
2023-03-27T06:32:52.034Z,699.00
2023-03-27T06:33:51.946Z,710.00
2023-03-27T06:34:51.957Z,714.00
2023-03-27T06:35:53.350Z,726.00
2023-03-27T06:36:51.933Z,732.00
2023-03-27T06:37:51.956Z,735.00
2023-03-27T06:38:51.928Z,747.00
2023-03-27T06:39:52.115Z,754.00
2023-03-27T06:40:51.929Z,755.00
2023-03-27T06:41:51.879Z,755.00
2023-03-27T06:42:51.870Z,752.00
2023-03-27T06:43:51.856Z,767.00
2023-03-27T06:44:51.839Z,796.00
2023-03-27T06:45:52.588Z,827.00
2023-03-27T06:46:51.881Z,875.00
2023-03-27T06:47:55.314Z,855.00
2023-03-27T06:48:52.008Z,942.00
2023-03-27T06:49:51.806Z,896.00
2023-03-27T06:50:51.824Z,876.00
2023-03-27T06:52:07.099Z,873.00
2023-03-27T06:52:51.852Z,876.00
2023-03-27T06:53:51.769Z,869.00
2023-03-27T06:54:51.761Z,868.00
2023-03-27T06:55:51.746Z,874.00
2023-03-27T06:56:51.838Z,845.00
2023-03-27T06:57:51.728Z,855.00
2023-03-27T06:58:51.750Z,866.00
2023-03-27T06:59:51.692Z,879.00
2023-03-27T07:00:51.715Z,896.00
2023-03-27T07:01:51.756Z,887.00
2023-03-27T07:02:51.719Z,892.00
2023-03-27T07:03:51.689Z,904.00
2023-03-27T07:05:03.814Z,892.00
2023-03-27T07:05:51.739Z,890.00
2023-03-27T07:06:51.657Z,910.00
2023-03-27T07:07:51.661Z,901.00
2023-03-27T07:08:51.584Z,895.00
2023-03-27T07:09:51.574Z,909.00
2023-03-27T07:11:03.829Z,892.00
2023-03-27T07:11:51.571Z,914.00
2023-03-27T07:12:51.558Z,923.00
2023-03-27T07:13:51.543Z,914.00
2023-03-27T07:14:51.558Z,926.00
2023-03-27T07:15:51.512Z,925.00
2023-03-27T07:16:51.579Z,921.00
2023-03-27T07:17:51.539Z,932.00
2023-03-27T07:18:51.538Z,925.00
2023-03-27T07:19:51.484Z,922.00
2023-03-27T07:20:51.481Z,936.00
2023-03-27T07:21:51.481Z,932.00
2023-03-27T07:22:51.461Z,946.00
2023-03-27T07:23:51.613Z,943.00
2023-03-27T07:24:51.423Z,947.00
2023-03-27T07:25:51.416Z,948.00
2023-03-27T07:26:51.441Z,966.00
2023-03-27T07:27:51.583Z,946.00
2023-03-27T07:28:51.488Z,960.00
2023-03-27T07:29:51.381Z,994.00
2023-03-27T07:30:51.482Z,924.00
2023-03-27T07:32:51.385Z,970.00
2023-03-27T07:33:51.534Z,951.00
2023-03-27T07:34:51.353Z,1036.00
2023-03-27T07:35:51.347Z,994.00
2023-03-27T07:36:51.300Z,1035.00
2023-03-27T07:37:51.295Z,891.00
2023-03-27T07:38:51.278Z,787.00
2023-03-27T07:39:51.283Z,935.00
2023-03-27T07:40:51.278Z,999.00
2023-03-27T07:41:51.278Z,1008.00
2023-03-27T07:42:51.250Z,1022.00
2023-03-27T07:43:51.231Z,1008.00
2023-03-27T07:44:51.257Z,1024.00
2023-03-27T07:45:51.271Z,1026.00
2023-03-27T07:46:51.202Z,1028.00
2023-03-27T07:47:51.218Z,1038.00
2023-03-27T07:48:51.190Z,1037.00
2023-03-27T07:49:51.162Z,1034.00
2023-03-27T07:50:51.853Z,1042.00
2023-03-27T07:51:51.198Z,1091.00
2023-03-27T07:52:51.156Z,908.00
2023-03-27T07:53:51.124Z,1049.00
2023-03-27T07:54:51.141Z,1067.00
2023-03-27T07:55:51.136Z,1073.00
2023-03-27T07:56:51.201Z,1078.00
2023-03-27T07:58:00.644Z,1075.00
2023-03-27T07:58:51.097Z,1098.00
2023-03-27T07:59:51.102Z,1101.00
2023-03-27T08:00:51.095Z,1093.00
2023-03-27T08:01:51.230Z,1105.00
2023-03-27T08:02:51.163Z,1111.00
2023-03-27T08:03:51.158Z,1102.00
2023-03-27T08:04:51.222Z,1099.00
2023-03-27T08:06:02.233Z,1097.00
2023-03-27T08:06:51.117Z,1193.00
2023-03-27T08:07:50.997Z,1202.00
2023-03-27T08:08:51.027Z,1165.00
2023-03-27T08:09:50.961Z,1162.00
2023-03-27T08:10:50.954Z,1159.00
2023-03-27T08:11:50.969Z,1144.00
2023-03-27T08:12:50.997Z,1256.00
2023-03-27T08:13:50.941Z,1220.00
2023-03-27T08:14:50.916Z,1127.00
2023-03-27T08:15:50.893Z,1380.00
2023-03-27T08:16:51.516Z,857.00
2023-03-27T08:17:50.941Z,1391.00
2023-03-27T08:18:50.940Z,766.00
2023-03-27T08:19:50.852Z,1382.00
2023-03-27T08:20:50.854Z,1508.00
2023-03-27T08:21:50.893Z,759.00
2023-03-27T08:22:50.882Z,1317.00
2023-03-27T08:23:50.833Z,1002.00
2023-03-27T08:24:50.873Z,712.00
2023-03-27T08:25:50.794Z,1654.00
2023-03-27T08:26:50.825Z,1381.00
2023-03-27T08:27:50.848Z,480.00
2023-03-27T08:28:50.838Z,1976.00
2023-03-27T08:29:50.785Z,2195.00
2023-03-27T08:30:50.844Z,1326.00
2023-03-27T08:31:50.724Z,1699.00
2023-03-27T08:32:50.861Z,1645.00
2023-03-27T08:33:50.720Z,1503.00
2023-03-27T08:34:50.748Z,1623.00
2023-03-27T08:35:50.737Z,1426.00
2023-03-27T08:36:50.732Z,1421.00
2023-03-27T08:37:50.693Z,1364.00
2023-03-27T08:38:50.738Z,550.00
2023-03-27T08:39:50.707Z,2296.00
2023-03-27T08:40:50.670Z,1340.00
2023-03-27T08:41:50.656Z,1248.00
2023-03-27T08:42:50.643Z,1268.00
2023-03-27T08:43:50.652Z,1688.00
2023-03-27T08:44:50.637Z,1745.00
2023-03-27T08:45:50.601Z,2521.00
2023-03-27T08:46:50.646Z,1653.00
2023-03-27T08:47:50.592Z,1961.00
2023-03-27T08:48:50.585Z,1182.00
2023-03-27T08:49:50.560Z,1248.00
2023-03-27T08:50:50.581Z,2025.00
2023-03-27T08:51:50.538Z,1686.00
2023-03-27T08:52:50.540Z,1675.00
2023-03-27T08:53:50.509Z,1328.00
2023-03-27T08:54:50.510Z,1612.00
2023-03-27T08:55:50.499Z,1015.00
2023-03-27T08:56:50.575Z,1802.00
2023-03-27T08:57:50.465Z,1396.00
2023-03-27T08:58:50.474Z,709.00
2023-03-27T08:59:50.482Z,1875.00
2023-03-27T09:00:50.446Z,1979.00
2023-03-27T09:01:50.472Z,2387.00
2023-03-27T09:02:50.516Z,2387.00
2023-03-27T09:03:50.577Z,1282.00
2023-03-27T09:04:50.417Z,2125.00
2023-03-27T09:05:50.394Z,1788.00
2023-03-27T09:06:50.399Z,1511.00
2023-03-27T09:07:50.366Z,1405.00
2023-03-27T09:08:50.415Z,1741.00
2023-03-27T09:09:50.435Z,1396.00
2023-03-27T09:10:50.352Z,1633.00
2023-03-27T09:11:50.320Z,1514.00
2023-03-27T09:12:50.322Z,2528.00
2023-03-27T09:13:50.336Z,938.00
2023-03-27T09:14:50.357Z,2326.00
2023-03-27T09:15:50.320Z,2572.00
2023-03-27T09:16:50.389Z,2101.00
2023-03-27T09:17:50.311Z,1765.00
2023-03-27T09:18:50.282Z,1683.00
2023-03-27T09:19:58.794Z,1885.00
2023-03-27T09:20:50.918Z,1849.00
2023-03-27T09:21:50.275Z,1730.00
2023-03-27T09:22:50.243Z,2077.00
2023-03-27T09:23:50.260Z,1695.00
2023-03-27T09:24:50.226Z,1171.00
2023-03-27T09:25:50.266Z,1151.00
2023-03-27T09:27:01.043Z,779.00
2023-03-27T09:27:50.199Z,1663.00
2023-03-27T09:28:50.164Z,1643.00
2023-03-27T09:29:50.160Z,1747.00
2023-03-27T09:30:50.182Z,2330.00
2023-03-27T09:31:50.353Z,1446.00
2023-03-27T09:32:50.164Z,1540.00
2023-03-27T09:33:50.121Z,1880.00
2023-03-27T09:34:50.106Z,2215.00
2023-03-27T09:35:50.126Z,816.00
2023-03-27T09:36:50.114Z,2213.00
2023-03-27T09:37:50.070Z,511.00
2023-03-27T09:38:50.097Z,1866.00
2023-03-27T09:39:50.090Z,1543.00
2023-03-27T09:40:50.059Z,1732.00
2023-03-27T09:41:50.064Z,2034.00
2023-03-27T09:42:50.039Z,2499.00
2023-03-27T09:43:50.031Z,3143.00
2023-03-27T09:44:50.018Z,2203.00
2023-03-27T09:45:50.002Z,1180.00
2023-03-27T09:46:50.079Z,3267.00
2023-03-27T09:47:50.071Z,2219.00
2023-03-27T09:48:50.042Z,1187.00
2023-03-27T09:49:49.956Z,2262.00
2023-03-27T09:50:49.978Z,2389.00
2023-03-27T09:51:49.959Z,2603.00
2023-03-27T09:52:49.924Z,2567.00
2023-03-27T09:53:49.887Z,1656.00
2023-03-27T09:54:49.917Z,1589.00
2023-03-27T09:55:49.953Z,1232.00
2023-03-27T09:56:49.899Z,498.00
2023-03-27T09:57:49.876Z,2174.00
2023-03-27T09:58:49.886Z,1614.00
2023-03-27T09:59:49.883Z,1201.00
2023-03-27T10:00:49.898Z,1444.00
2023-03-27T10:01:49.833Z,1652.00
2023-03-27T10:02:49.855Z,602.00
2023-03-27T10:03:49.874Z,2120.00
2023-03-27T10:04:49.833Z,2427.00
2023-03-27T10:05:49.804Z,2191.00
2023-03-27T10:06:49.780Z,3115.00
2023-03-27T10:07:49.788Z,2138.00
2023-03-27T10:08:49.799Z,2061.00
2023-03-27T10:09:49.763Z,1850.00
2023-03-27T10:10:49.760Z,1841.00
2023-03-27T10:11:49.733Z,1462.00
2023-03-27T10:12:49.721Z,2131.00
2023-03-27T10:13:49.729Z,1621.00
2023-03-27T10:14:52.253Z,1872.00
2023-03-27T10:15:49.735Z,693.00
2023-03-27T10:16:49.713Z,2454.00
2023-03-27T10:17:49.727Z,2152.00
2023-03-27T10:18:49.644Z,2713.00
2023-03-27T10:19:49.658Z,567.00
2023-03-27T10:20:49.691Z,1959.00
2023-03-27T10:21:49.693Z,1715.00
2023-03-27T10:22:49.623Z,1738.00
2023-03-27T10:23:49.808Z,2395.00
2023-03-27T10:24:49.623Z,2589.00
2023-03-27T10:25:49.678Z,2127.00
2023-03-27T10:26:49.613Z,1879.00
2023-03-27T10:27:49.589Z,2114.00
2023-03-27T10:28:49.616Z,1778.00
2023-03-27T10:29:49.646Z,2295.00
2023-03-27T10:30:49.831Z,2004.00
2023-03-27T10:31:49.602Z,2134.00
2023-03-27T10:32:49.611Z,824.00
2023-03-27T10:33:49.775Z,2541.00
2023-03-27T10:34:49.653Z,3202.00
2023-03-27T10:35:49.595Z,2775.00
2023-03-27T10:36:49.514Z,2370.00
2023-03-27T10:37:50.244Z,1745.00
2023-03-27T10:38:49.513Z,1683.00
2023-03-27T10:39:49.558Z,1598.00
2023-03-27T10:40:49.450Z,2057.00
2023-03-27T10:41:49.470Z,2456.00
2023-03-27T10:42:49.426Z,2641.00
2023-03-27T10:43:49.442Z,2196.00
2023-03-27T10:44:49.391Z,2235.00
2023-03-27T10:45:49.466Z,1828.00
2023-03-27T10:46:49.380Z,1565.00
2023-03-27T10:47:49.410Z,1469.00
2023-03-27T10:48:49.378Z,1460.00
2023-03-27T10:49:49.350Z,1373.00
2023-03-27T10:50:49.317Z,523.00
2023-03-27T10:51:49.374Z,1676.00
2023-03-27T10:52:49.332Z,1792.00
2023-03-27T10:53:49.441Z,2982.00
2023-03-27T10:54:49.306Z,793.00
2023-03-27T10:55:49.306Z,2187.00
2023-03-27T10:56:49.333Z,4041.00
2023-03-27T10:57:49.271Z,1268.00
2023-03-27T10:58:49.272Z,4035.00
2023-03-27T10:59:49.433Z,2526.00
2023-03-27T11:00:49.254Z,2095.00
2023-03-27T11:01:49.289Z,2051.00
2023-03-27T11:02:49.318Z,2002.00
2023-03-27T11:03:49.256Z,1866.00
2023-03-27T11:04:49.205Z,1522.00
2023-03-27T11:05:49.214Z,1338.00
2023-03-27T11:06:49.203Z,1597.00
2023-03-27T11:07:49.160Z,1812.00
2023-03-27T11:08:49.132Z,1922.00
2023-03-27T11:09:49.148Z,1854.00
2023-03-27T11:10:49.151Z,1150.00
2023-03-27T11:11:49.116Z,2967.00
2023-03-27T11:12:49.121Z,1837.00
2023-03-27T11:13:49.111Z,1810.00
2023-03-27T11:14:49.179Z,1820.00
2023-03-27T11:15:49.090Z,1857.00
2023-03-27T11:16:49.117Z,1871.00
2023-03-27T11:17:49.159Z,930.00
2023-03-27T11:18:49.057Z,3315.00
2023-03-27T11:19:49.027Z,974.00
2023-03-27T11:20:49.034Z,3017.00
2023-03-27T11:21:49.018Z,2103.00
2023-03-27T11:22:49.021Z,2911.00
2023-03-27T11:23:48.999Z,2995.00
2023-03-27T11:24:49.004Z,2810.00
2023-03-27T11:25:49.005Z,4190.00
2023-03-27T11:26:48.952Z,3181.00
2023-03-27T11:27:48.968Z,2826.00
2023-03-27T11:28:48.930Z,3612.00
2023-03-27T11:29:48.958Z,3231.00
2023-03-27T11:30:48.922Z,3121.00
2023-03-27T11:31:49.008Z,2296.00
2023-03-27T11:32:49.155Z,1915.00
2023-03-27T11:33:48.897Z,2725.00
2023-03-27T11:34:48.942Z,2621.00
2023-03-27T11:35:48.962Z,2467.00
2023-03-27T11:36:48.970Z,2365.00
2023-03-27T11:37:48.880Z,1904.00
2023-03-27T11:38:48.856Z,1569.00
2023-03-27T11:39:48.962Z,1277.00
2023-03-27T11:40:48.953Z,1227.00
2023-03-27T11:41:48.858Z,1357.00
2023-03-27T11:42:49.670Z,1501.00
2023-03-27T11:43:48.859Z,1600.00
2023-03-27T11:44:48.789Z,1808.00
2023-03-27T11:45:48.884Z,1546.00
2023-03-27T11:46:48.802Z,1457.00
2023-03-27T11:47:48.796Z,1453.00
2023-03-27T11:51:07.171Z,1299.00
2023-03-27T11:52:08.115Z,821.00
2023-03-27T11:53:08.174Z,1659.00
2023-03-27T11:54:08.073Z,478.00
2023-03-27T11:55:08.029Z,1728.00
2023-03-27T11:56:08.144Z,2363.00
2023-03-27T11:57:08.065Z,1478.00
2023-03-27T11:58:08.493Z,1538.00
2023-03-27T11:59:07.994Z,451.00
2023-03-27T12:00:08.122Z,1436.00
2023-03-27T12:01:08.225Z,1521.00
2023-03-27T12:02:08.012Z,2412.00
2023-03-27T12:03:08.045Z,1653.00
2023-03-27T12:04:08.122Z,1270.00
2023-03-27T12:05:07.936Z,1356.00
2023-03-27T12:06:07.911Z,1559.00
2023-03-27T12:07:12.037Z,1404.00
2023-03-27T12:08:07.966Z,1304.00
2023-03-27T12:09:09.632Z,1205.00
2023-03-27T12:12:10.870Z,1309.00
2023-03-27T12:15:04.485Z,1295.00
2023-03-27T12:16:05.504Z,1154.00
2023-03-27T12:17:05.671Z,1028.00
2023-03-27T12:18:05.578Z,519.00
2023-03-27T12:37:29.383Z,3030.00
2023-03-27T12:38:31.380Z,2840.00
2023-03-27T12:39:29.915Z,3901.00
2023-03-27T12:40:38.840Z,1986.00
2023-03-27T12:41:29.709Z,3659.00
2023-03-27T12:42:29.693Z,2832.00
2023-03-27T12:43:29.792Z,4369.00
2023-03-27T12:47:09.250Z,2304.00
2023-03-27T12:50:38.166Z,2648.00
2023-03-27T12:51:38.955Z,2825.00
2023-03-27T12:52:38.931Z,2749.00
2023-03-27T12:53:38.887Z,2234.00
2023-03-27T12:58:51.958Z,2791.00
2023-03-27T12:59:51.098Z,2712.00
2023-03-27T13:00:51.278Z,3138.00
2023-03-27T13:01:52.618Z,2340.00
2023-03-27T13:04:39.490Z,1994.00
2023-03-27T13:05:40.237Z,2236.00
2023-03-27T13:06:40.317Z,2218.00
2023-03-27T13:07:40.233Z,1922.00
2023-03-27T13:08:40.204Z,1680.00
2023-03-27T13:09:40.252Z,1327.00
2023-03-27T13:10:40.169Z,1536.00
2023-03-27T13:11:40.370Z,1435.00
2023-03-27T13:12:40.342Z,1332.00
2023-03-27T13:13:40.294Z,1150.00
2023-03-27T13:14:40.173Z,1112.00
2023-03-27T13:15:40.171Z,1016.00
2023-03-27T13:16:40.106Z,964.00